Impacts METAR Board
IDs:

KPHL - Philadelphia Intl, PA, US

Updated at: 0900 UTC 30 Oct 2020
Potential Impact None Slight Moderate High
Time 29/21Z 29/22Z 29/23Z 30/00Z 30/01Z 30/02Z 30/03Z 30/04Z 30/05Z 30/06Z 30/07Z 30/08Z 30/09Z
Temp54 52 51 51 49 49 49 49 49 48 48 47 46
Dewpt52 50 48 48 46 46 47 47 47 46 45 44 44
Altim29.43 29.44 29.52 29.56 29.58 29.61 29.62 29.63 29.63 29.63 29.63 29.62 29.60
VIS2.5 2.5 10 10 7 5 3 2 2 5 5 3 5
CIG6 9 11 15 15 13 13 10 8 13 11 13 21
CoverOVCOVCOVCOVCOVCOVCOVCOVCOVCOVCOVCOVCOVC
FltCatIFRIFRMVFRMVFRMVFRMVFRMVFRIFRIFRMVFRMVFRMVFRMVFR
WXRA BR-RA BR-RA-RA-RABR-RA BR-RA BR-RA BRBRBR+RA BRRA BR
WDir30302030404040104030403050
WSpd19 20 15 15 16 10 10 12 9 15 17 12 12
WGst25 27 26 24 21 -- -- -- -- 19 22 -- --
Raw hourly METARs
KPHL 292054Z 03019G25KT 2 1/2SM RA BR BKN006 BKN012 OVC017 12/11 A2943 RMK AO2 PK WND 04029/2028 SLP965 P0013 60037 T01220111 56057
KPHL 292154Z 03020G27KT 2 1/2SM -RA BR OVC009 11/10 A2944 RMK AO2 PK WND 02028/2101 SLP969 P0008 T01110100
KPHL 292254Z 02015G26KT 10SM -RA OVC011 11/09 A2952 RMK AO2 PK WND 03027/2206 RAE38B48 PRESRR SLP996 P0001 T01060089
KPHL 292354Z 03015G24KT 10SM -RA OVC015 11/09 A2956 RMK AO2 PK WND 03027/2314 SLP008 P0001 60047 T01060089 10128 20106 53042
KPHL 300054Z 04016G21KT 7SM -RA OVC015 09/08 A2958 RMK AO2 SLP017 P0001 T00940078
KPHL 300154Z 04010KT 5SM BR OVC013 09/08 A2961 RMK AO2 RAE06 SLP025 P0000 T00940078
KPHL 300254Z 04010KT 3SM -RA BR SCT008 OVC013 09/08 A2962 RMK AO2 DZB0159E22RAB22 SLP028 P0001 60002 T00940083 51021
KPHL 300354Z 01012KT 2SM -RA BR OVC010 09/08 A2963 RMK AO2 SLP034 P0003 T00940083
KPHL 300454Z 04009KT 2SM -RA BR BKN008 OVC014 09/08 A2963 RMK AO2 SLP033 P0002 T00940083 401500094
KPHL 300554Z 03015G19KT 5SM BR OVC013 09/08 A2963 RMK AO2 RAE32DZB32E48 SLP034 P0001 60008 T00890078 10106 20089 51006
KPHL 300654Z 04017G22KT 5SM BR BKN011 OVC038 09/07 A2963 RMK AO2 RAB09E25 SLP034 P0001 T00890072
KPHL 300804Z 03012KT 3SM +RA BR BKN013 OVC020 08/07 A2962 RMK AO2 P0004 T00830067
KPHL 300854Z 05012KT 5SM RA BR FEW010 BKN021 OVC035 08/07 A2960 RMK AO2 PRESFR SLP022 P0017 60020 T00780067 58012



Page loaded:  09:54 UTC  |   02:54 AM Pacific  |   03:54 AM Mountain  |   04:54 AM Central  |   05:54 AM Eastern

 

ADVISORIES

FORECASTS

FORECASTS

OBSERVATIONS

USER TOOLS

ABOUT US